Terminal Aerodrome Forecast
Issued by NWS Jackson, MS

Home | Current Version | Previous Version | Text Only | Print | Product List | Glossary On
Versions: 1 2 3 4 5 6 7 8 9 10 11 12
000
FTUS44 KMEG 021720
TAFTUP
TAF
KTUP 021720Z 0218/0318 01005KT P6SM SCT050 SCT250
     FM030100 00000KT P6SM SKC
     FM031400 23004KT P6SM SKC=

USA.gov is the U.S. government's official web portal to all federal, state and local government web resources and services.